createdAt,value
2019-05-30T00:01:05.144Z,102318.65
2019-05-30T00:03:34.810Z,102322.47
2019-05-30T00:06:04.681Z,102321.28
2019-05-30T00:08:34.418Z,102320.38
2019-05-30T00:11:04.749Z,102323.85
2019-05-30T00:13:34.481Z,102324.36
2019-05-30T00:16:05.745Z,102324.34
2019-05-30T00:18:35.558Z,102324.77
2019-05-30T00:21:05.196Z,102327.75
2019-05-30T00:23:34.929Z,102326.55
2019-05-30T00:26:04.727Z,102320.70
2019-05-30T00:28:34.397Z,102325.95
2019-05-30T00:31:04.674Z,102322.16
2019-05-30T00:33:34.487Z,102333.64
2019-05-30T00:36:04.079Z,102332.06
2019-05-30T00:38:34.096Z,102327.10
2019-05-30T00:41:04.191Z,102326.72
2019-05-30T00:43:33.895Z,102326.41
2019-05-30T00:46:04.197Z,102335.45
2019-05-30T00:48:33.872Z,102335.04
2019-05-30T00:51:04.659Z,102338.02
2019-05-30T00:53:34.569Z,102342.32
2019-05-30T00:56:04.781Z,102335.11
2019-05-30T00:58:38.027Z,102335.06
2019-05-30T01:01:08.099Z,102333.02
2019-05-30T01:03:38.112Z,102336.05
2019-05-30T01:06:07.780Z,102345.82
2019-05-30T01:08:37.880Z,102341.63
2019-05-30T01:11:07.905Z,102336.97
2019-05-30T01:13:38.532Z,102346.33
2019-05-30T01:16:08.539Z,102341.36
2019-05-30T01:18:39.178Z,102350.22
2019-05-30T01:21:08.938Z,102345.20
2019-05-30T01:23:40.605Z,102341.38
2019-05-30T01:26:10.455Z,102343.56
2019-05-30T01:28:43.031Z,102340.66
2019-05-30T01:31:12.780Z,102333.91
2019-05-30T01:33:42.787Z,102333.07
2019-05-30T01:36:13.270Z,102333.20
2019-05-30T01:38:43.072Z,102339.23
2019-05-30T01:41:12.768Z,102336.77
2019-05-30T01:43:43.072Z,102339.78
2019-05-30T01:46:12.728Z,102345.80
2019-05-30T01:48:42.368Z,102347.08
2019-05-30T01:51:12.078Z,102350.95
2019-05-30T01:53:41.737Z,102350.59
2019-05-30T01:56:11.422Z,102341.35
2019-05-30T01:58:41.031Z,102357.90
2019-05-30T02:01:22.559Z,102353.30
2019-05-30T02:03:42.137Z,102352.93
2019-05-30T02:06:11.855Z,102349.55
2019-05-30T02:08:41.515Z,102349.97
2019-05-30T02:11:11.142Z,102352.16
2019-05-30T02:13:40.791Z,102350.06
2019-05-30T02:16:10.654Z,102353.03
2019-05-30T02:18:40.349Z,102353.46
2019-05-30T02:21:10.567Z,102349.34
2019-05-30T02:23:40.259Z,102348.94
2019-05-30T02:26:10.515Z,102345.13
2019-05-30T02:28:40.439Z,102347.30
2019-05-30T02:31:12.258Z,102349.86
2019-05-30T02:33:42.095Z,102349.91
2019-05-30T02:36:12.648Z,102353.73
2019-05-30T02:38:42.677Z,102352.47
2019-05-30T02:41:14.285Z,102358.47
2019-05-30T02:43:44.368Z,102358.13
2019-05-30T02:46:14.084Z,102354.41
2019-05-30T02:48:58.020Z,102357.83
2019-05-30T02:51:15.035Z,102359.16
2019-05-30T02:53:44.740Z,102358.32
2019-05-30T02:56:14.382Z,102363.42
2019-05-30T02:58:43.985Z,102363.89
2019-05-30T03:01:14.592Z,102365.12
2019-05-30T03:03:44.432Z,102369.76
2019-05-30T03:06:14.368Z,102373.09
2019-05-30T03:08:44.483Z,102373.09
2019-05-30T03:11:15.577Z,102374.84
2019-05-30T03:13:45.548Z,102377.38
2019-05-30T03:16:15.308Z,102372.72
2019-05-30T03:18:44.924Z,102379.14
2019-05-30T03:21:15.613Z,102384.23
2019-05-30T03:23:45.692Z,102385.55
2019-05-30T03:26:16.261Z,102380.11
2019-05-30T03:28:46.086Z,102383.08
2019-05-30T03:31:27.958Z,102377.16
2019-05-30T03:33:49.985Z,102386.05
2019-05-30T03:36:29.611Z,102382.23
2019-05-30T03:42:30.217Z,102367.83
2019-05-30T03:45:00.048Z,102382.45
2019-05-30T03:47:32.143Z,102380.30
2019-05-30T03:50:05.156Z,102385.73
2019-05-30T03:52:38.319Z,102378.05
2019-05-30T03:55:11.879Z,102391.16
2019-05-30T03:58:05.616Z,102383.53
2019-05-30T04:00:52.779Z,102382.63
2019-05-30T04:03:43.785Z,102383.47
2019-05-30T04:06:19.323Z,102384.25
2019-05-30T04:08:52.666Z,102384.66
2019-05-30T04:11:44.590Z,102387.62
2019-05-30T04:14:20.009Z,102384.25
2019-05-30T04:16:49.971Z,102388.89
2019-05-30T04:19:20.196Z,102397.73
2019-05-30T04:21:50.001Z,102391.30
2019-05-30T04:24:20.581Z,102396.75
2019-05-30T04:26:50.367Z,102403.50
2019-05-30T04:29:22.780Z,102405.98
2019-05-30T04:31:52.490Z,102404.28
2019-05-30T04:34:22.126Z,102408.95
2019-05-30T04:36:53.394Z,102401.75
2019-05-30T04:39:23.364Z,102405.48
2019-05-30T04:41:53.010Z,102394.91
2019-05-30T04:44:22.663Z,102403.55
2019-05-30T04:46:52.552Z,102410.18
2019-05-30T04:49:22.192Z,102411.73
2019-05-30T04:51:51.903Z,102410.30
2019-05-30T04:54:28.123Z,102405.86
2019-05-30T04:56:57.802Z,102406.13
2019-05-30T04:59:27.464Z,102407.22
2019-05-30T05:01:57.458Z,102399.01
2019-05-30T05:04:27.634Z,102404.36
2019-05-30T05:06:57.288Z,102401.27
2019-05-30T05:09:26.941Z,102407.09
2019-05-30T05:11:56.742Z,102402.80
2019-05-30T05:14:26.435Z,102406.11
2019-05-30T05:16:56.142Z,102414.08
2019-05-30T05:19:26.623Z,102415.28
2019-05-30T05:21:57.083Z,102415.18
2019-05-30T05:24:26.907Z,102420.97
2019-05-30T05:26:56.870Z,102416.64
2019-05-30T05:29:26.791Z,102421.22
2019-05-30T05:31:56.539Z,102427.95
2019-05-30T05:34:26.176Z,102428.78
2019-05-30T05:36:55.813Z,102426.92
2019-05-30T05:39:26.296Z,102425.98
2019-05-30T05:41:55.934Z,102428.88
2019-05-30T05:44:30.096Z,102425.39
2019-05-30T05:47:53.911Z,102417.41
2019-05-30T05:50:24.596Z,102414.27
2019-05-30T05:52:54.394Z,102432.28
2019-05-30T05:55:25.004Z,102424.13
2019-05-30T05:58:21.378Z,102427.34
2019-05-30T06:00:51.589Z,102425.45
2019-05-30T06:03:22.262Z,102433.28
2019-05-30T06:05:55.390Z,102428.09
2019-05-30T06:08:27.704Z,102437.66
2019-05-30T06:10:57.425Z,102425.66
2019-05-30T06:13:27.042Z,102425.55
2019-05-30T06:15:56.724Z,102428.05
2019-05-30T06:18:28.729Z,102425.31
2019-05-30T06:20:59.089Z,102430.70
2019-05-30T06:23:29.350Z,102425.39
2019-05-30T06:25:59.039Z,102427.42
2019-05-30T06:28:28.735Z,102425.67
2019-05-30T06:30:59.194Z,102426.14
2019-05-30T06:33:29.223Z,102421.04
2019-05-30T06:36:00.262Z,102422.31
2019-05-30T06:38:30.384Z,102426.92
2019-05-30T06:41:00.070Z,102428.14
2019-05-30T06:43:30.327Z,102425.91
2019-05-30T06:46:00.435Z,102432.19
2019-05-30T06:48:30.927Z,102433.03
2019-05-30T06:51:00.783Z,102429.11
2019-05-30T06:53:31.427Z,102431.20
2019-05-30T06:56:01.433Z,102436.73
2019-05-30T06:58:47.455Z,102433.69
2019-05-30T07:01:02.556Z,102432.28
2019-05-30T07:03:33.955Z,102438.64
2019-05-30T07:06:05.790Z,102436.02
2019-05-30T07:08:43.992Z,102436.02
2019-05-30T07:11:12.859Z,102434.41
2019-05-30T07:13:44.109Z,102438.89
2019-05-30T07:16:13.864Z,102436.95
2019-05-30T07:18:43.775Z,102439.31
2019-05-30T07:21:13.483Z,102441.23
2019-05-30T07:23:46.251Z,102436.98
2019-05-30T07:26:15.864Z,102438.66
2019-05-30T07:28:45.485Z,102447.13
2019-05-30T07:31:23.978Z,102445.81
2019-05-30T07:34:05.799Z,102444.88
2019-05-30T07:36:35.472Z,102452.38
2019-05-30T07:39:07.763Z,102451.81
2019-05-30T07:41:37.563Z,102448.72
2019-05-30T07:44:07.296Z,102436.05
2019-05-30T07:46:37.805Z,102441.62
2019-05-30T07:49:07.422Z,102443.44
2019-05-30T07:51:37.115Z,102439.67
2019-05-30T07:54:06.783Z,102436.28
2019-05-30T07:56:55.088Z,102444.55
2019-05-30T07:59:24.722Z,102455.75
2019-05-30T08:02:00.117Z,102448.33
2019-05-30T08:04:36.216Z,102449.88
2019-05-30T08:07:06.842Z,102438.23
2019-05-30T08:09:36.493Z,102446.58
2019-05-30T08:12:06.244Z,102448.16
2019-05-30T08:14:37.279Z,102438.44
2019-05-30T08:17:07.169Z,102447.55
2019-05-30T08:19:38.170Z,102441.16
2019-05-30T08:22:08.005Z,102436.88
2019-05-30T08:24:38.874Z,102436.78
2019-05-30T08:27:08.726Z,102431.23
2019-05-30T08:29:38.595Z,102426.19
2019-05-30T08:32:08.334Z,102428.34
2019-05-30T08:34:38.860Z,102425.27
2019-05-30T08:37:08.627Z,102430.24
2019-05-30T08:39:39.305Z,102427.65
2019-05-30T08:42:09.116Z,102425.86
2019-05-30T08:44:40.112Z,102425.39
2019-05-30T08:47:09.893Z,102435.41
2019-05-30T08:49:40.358Z,102425.41
2019-05-30T08:52:10.442Z,102421.34
2019-05-30T08:54:40.595Z,102424.48
2019-05-30T08:57:10.293Z,102421.56
2019-05-30T08:59:40.749Z,102422.69
2019-05-30T09:02:10.504Z,102423.02
2019-05-30T09:04:40.313Z,102407.34
2019-05-30T09:07:10.492Z,102415.38
2019-05-30T09:09:40.416Z,102403.72
2019-05-30T09:12:10.362Z,102404.44
2019-05-30T09:14:41.185Z,102406.73
2019-05-30T09:17:11.302Z,102395.06
2019-05-30T09:19:41.473Z,102391.94
2019-05-30T09:22:11.270Z,102391.34
2019-05-30T09:24:42.109Z,102392.50
2019-05-30T09:27:12.004Z,102395.58
2019-05-30T09:29:42.846Z,102390.83
2019-05-30T09:32:14.435Z,102389.50
2019-05-30T09:34:44.877Z,102390.73
2019-05-30T09:37:14.919Z,102390.62
2019-05-30T09:39:45.563Z,102387.98
2019-05-30T09:42:17.946Z,102387.39
2019-05-30T09:44:51.008Z,102387.47
2019-05-30T09:47:20.812Z,102382.94
2019-05-30T09:49:51.291Z,102378.66
2019-05-30T09:52:21.126Z,102379.50
2019-05-30T09:54:50.902Z,102376.05
2019-05-30T09:57:20.585Z,102373.94
2019-05-30T09:59:50.527Z,102378.17
2019-05-30T10:02:20.457Z,102367.69
2019-05-30T10:04:50.513Z,102362.04
2019-05-30T10:07:20.608Z,102365.15
2019-05-30T10:09:50.937Z,102364.50
2019-05-30T10:12:20.875Z,102369.67
2019-05-30T10:14:51.021Z,102360.38
2019-05-30T10:17:21.198Z,102358.08
2019-05-30T10:19:51.323Z,102361.09
2019-05-30T10:22:21.506Z,102359.72
2019-05-30T10:25:31.993Z,102358.22
2019-05-30T10:27:48.908Z,102350.80
2019-05-30T10:30:19.766Z,102346.32
2019-05-30T10:32:50.359Z,102346.98
2019-05-30T10:35:21.865Z,102343.70
2019-05-30T10:37:52.705Z,102338.97
2019-05-30T10:40:22.590Z,102344.72
2019-05-30T10:42:54.935Z,102332.98
2019-05-30T10:45:24.549Z,102336.39
2019-05-30T10:47:55.718Z,102327.11
2019-05-30T10:50:29.204Z,102326.08
2019-05-30T10:52:58.886Z,102322.90
2019-05-30T10:55:28.926Z,102321.69
2019-05-30T10:57:59.725Z,102326.39
2019-05-30T11:00:53.859Z,102325.23
2019-05-30T11:03:25.836Z,102323.80
2019-05-30T11:06:23.058Z,102322.33
2019-05-30T11:08:55.040Z,102318.86
2019-05-30T11:11:24.693Z,102304.36
2019-05-30T11:13:55.383Z,102309.88
2019-05-30T11:16:25.091Z,102300.37
2019-05-30T11:19:15.282Z,102302.58
2019-05-30T11:21:47.883Z,102302.48
2019-05-30T11:24:17.533Z,102301.36
2019-05-30T11:26:48.766Z,102303.43
2019-05-30T11:29:22.593Z,102293.02
2019-05-30T11:31:56.895Z,102298.45
2019-05-30T11:34:25.647Z,102302.64
2019-05-30T11:36:55.290Z,102297.50
2019-05-30T11:39:24.976Z,102301.57
2019-05-30T11:41:55.360Z,102302.89
2019-05-30T11:44:25.014Z,102296.42
2019-05-30T11:46:55.598Z,102295.11
2019-05-30T11:49:25.275Z,102295.59
2019-05-30T11:51:55.788Z,102286.00
2019-05-30T11:54:25.723Z,102296.90
2019-05-30T11:56:56.230Z,102290.30
2019-05-30T11:59:25.941Z,102286.54
2019-05-30T12:01:56.415Z,102284.25
2019-05-30T12:04:26.314Z,102273.09
2019-05-30T12:06:56.791Z,102281.56
2019-05-30T12:09:26.590Z,102280.91
2019-05-30T12:11:57.439Z,102285.20
2019-05-30T12:14:27.186Z,102288.28
2019-05-30T12:16:57.349Z,102276.53
2019-05-30T12:19:27.034Z,102267.07
2019-05-30T12:21:57.699Z,102272.88
2019-05-30T12:24:27.440Z,102274.73
2019-05-30T12:26:58.086Z,102270.39
2019-05-30T12:29:27.825Z,102267.23
2019-05-30T12:32:00.255Z,102263.69
2019-05-30T12:34:28.960Z,102268.14
2019-05-30T12:36:58.670Z,102272.28
2019-05-30T12:39:28.450Z,102267.81
2019-05-30T12:49:17.689Z,102261.34
2019-05-30T12:51:49.023Z,102259.62
2019-05-30T12:54:18.690Z,102262.77
2019-05-30T12:56:48.340Z,102266.27
2019-05-30T13:02:42.333Z,102264.27
2019-05-30T13:05:12.233Z,102263.81
2019-05-30T13:07:41.924Z,102264.76
2019-05-30T13:14:00.676Z,102263.43
2019-05-30T13:16:30.514Z,102265.27
2019-05-30T13:19:00.220Z,102257.78
2019-05-30T13:21:31.359Z,102257.31
2019-05-30T13:24:01.845Z,102255.62
2019-05-30T13:26:31.638Z,102254.07
2019-05-30T13:29:02.282Z,102247.34
2019-05-30T13:31:32.140Z,102252.19
2019-05-30T13:34:02.948Z,102243.95
2019-05-30T13:36:32.795Z,102237.94
2019-05-30T13:39:03.241Z,102238.86
2019-05-30T13:41:32.908Z,102235.33
2019-05-30T13:44:06.041Z,102230.95
2019-05-30T13:46:34.087Z,102225.59
2019-05-30T13:49:04.749Z,102228.02
2019-05-30T13:51:34.620Z,102232.34
2019-05-30T13:54:05.277Z,102237.41
2019-05-30T13:56:34.951Z,102232.89
2019-05-30T13:59:05.996Z,102230.85
2019-05-30T14:01:37.385Z,102220.39
2019-05-30T14:04:08.271Z,102209.87
2019-05-30T14:06:38.012Z,102217.55
2019-05-30T14:09:08.591Z,102217.50
2019-05-30T14:11:38.410Z,102212.47
2019-05-30T14:14:08.897Z,102209.75
2019-05-30T14:16:38.712Z,102211.45
2019-05-30T14:19:11.080Z,102209.03
2019-05-30T14:21:39.782Z,102210.58
2019-05-30T14:24:09.526Z,102203.35
2019-05-30T14:26:39.404Z,102201.27
2019-05-30T14:29:09.863Z,102200.13
2019-05-30T14:31:41.147Z,102192.28
2019-05-30T14:34:10.785Z,102193.23
2019-05-30T14:36:40.418Z,102193.22
2019-05-30T14:39:11.206Z,102186.50
2019-05-30T14:41:40.937Z,102176.39
2019-05-30T14:44:10.624Z,102176.39
2019-05-30T14:46:40.331Z,102188.50
2019-05-30T14:49:10.685Z,102188.50
2019-05-30T14:51:40.467Z,102182.71
2019-05-30T14:54:11.137Z,102182.71
2019-05-30T14:56:40.831Z,102185.70
2019-05-30T14:59:11.093Z,102177.56
2019-05-30T15:01:40.797Z,102180.16
2019-05-30T15:04:11.342Z,102181.97
2019-05-30T15:06:41.147Z,102167.73
2019-05-30T15:09:17.803Z,102167.73
2019-05-30T15:11:42.354Z,102178.48
2019-05-30T15:14:12.908Z,102173.77
2019-05-30T15:16:42.729Z,102160.43
2019-05-30T15:19:12.445Z,102160.43
2019-05-30T15:21:42.058Z,102173.45
2019-05-30T15:24:12.845Z,102167.02
2019-05-30T15:26:43.056Z,102172.67
2019-05-30T15:29:12.753Z,102166.55
2019-05-30T15:31:42.412Z,102174.09
2019-05-30T15:34:12.606Z,102170.30
2019-05-30T15:36:42.359Z,102162.05
2019-05-30T15:39:12.990Z,102162.05
2019-05-30T15:41:42.612Z,102161.24
2019-05-30T15:44:12.229Z,102157.97
2019-05-30T15:46:41.982Z,102158.05
2019-05-30T15:49:12.769Z,102158.05
2019-05-30T15:51:42.576Z,102151.64
2019-05-30T15:54:12.979Z,102154.82
2019-05-30T15:56:42.697Z,102153.98
2019-05-30T15:59:13.642Z,102155.06
2019-05-30T16:01:43.451Z,102141.78
2019-05-30T16:04:14.105Z,102140.75
2019-05-30T16:06:43.957Z,102140.75
2019-05-30T16:09:14.641Z,102138.07
2019-05-30T16:11:44.397Z,102133.94
2019-05-30T16:14:15.234Z,102134.41
2019-05-30T16:16:45.385Z,102129.64
2019-05-30T16:19:21.331Z,102132.38
2019-05-30T16:21:46.831Z,102128.95
2019-05-30T16:24:16.692Z,102127.78
2019-05-30T16:33:35.887Z,102118.05
2019-05-30T16:36:05.574Z,102121.31
2019-05-30T16:38:35.223Z,102114.02
2019-05-30T16:41:05.229Z,102119.64
2019-05-30T16:43:34.946Z,102113.46
2019-05-30T16:46:04.643Z,102114.08
2019-05-30T16:48:41.979Z,102110.84
2019-05-30T16:51:21.292Z,102105.46
2019-05-30T16:53:53.627Z,102110.14
2019-05-30T16:56:23.629Z,102105.08
2019-05-30T16:58:53.343Z,102097.72
2019-05-30T17:01:24.161Z,102113.44
2019-05-30T17:03:54.842Z,102111.66
2019-05-30T17:06:26.195Z,102112.05
2019-05-30T17:08:56.043Z,102109.52
2019-05-30T17:11:25.718Z,102106.71
2019-05-30T17:13:55.417Z,102109.59
2019-05-30T17:16:26.244Z,102103.36
2019-05-30T17:18:56.008Z,102101.16
2019-05-30T17:21:26.798Z,102103.83
2019-05-30T17:23:56.589Z,102100.80
2019-05-30T17:26:27.440Z,102094.83
2019-05-30T17:28:57.196Z,102094.37
2019-05-30T17:31:28.509Z,102095.40
2019-05-30T17:33:58.362Z,102096.05
2019-05-30T17:36:28.411Z,102086.49
2019-05-30T17:38:58.252Z,102091.73
2019-05-30T17:41:28.932Z,102083.46
2019-05-30T17:43:58.777Z,102083.81
2019-05-30T17:46:30.040Z,102080.87
2019-05-30T17:48:59.908Z,102082.70
2019-05-30T17:51:29.997Z,102079.93
2019-05-30T17:53:59.833Z,102081.33
2019-05-30T17:56:30.256Z,102077.65
2019-05-30T17:59:00.148Z,102075.76
2019-05-30T18:01:30.541Z,102079.53
2019-05-30T18:04:00.246Z,102081.00
2019-05-30T18:06:30.854Z,102082.19
2019-05-30T18:09:00.570Z,102080.70
2019-05-30T18:11:31.101Z,102076.67
2019-05-30T18:14:01.042Z,102078.59
2019-05-30T18:16:32.299Z,102072.41
2019-05-30T18:19:01.932Z,102075.62
2019-05-30T18:21:31.896Z,102068.53
2019-05-30T18:24:02.592Z,102069.63
2019-05-30T18:26:32.407Z,102072.56
2019-05-30T18:29:03.239Z,102078.14
2019-05-30T18:31:33.180Z,102079.05
2019-05-30T18:34:02.929Z,102075.97
2019-05-30T18:36:32.889Z,102070.65
2019-05-30T18:39:02.771Z,102076.70
2019-05-30T18:41:32.866Z,102073.75
2019-05-30T18:44:02.493Z,102070.89
2019-05-30T18:46:33.306Z,102065.54
2019-05-30T18:49:03.169Z,102068.47
2019-05-30T18:51:33.050Z,102068.81
2019-05-30T18:54:02.818Z,102065.97
2019-05-30T18:56:32.780Z,102070.45
2019-05-30T18:59:02.469Z,102069.16
2019-05-30T19:01:33.638Z,102073.92
2019-05-30T19:04:03.756Z,102068.22
2019-05-30T19:06:33.852Z,102070.13
2019-05-30T19:09:04.297Z,102067.06
2019-05-30T19:11:36.284Z,102061.16
2019-05-30T19:14:05.607Z,102059.20
2019-05-30T19:16:36.700Z,102054.30
2019-05-30T19:19:06.679Z,102055.02
2019-05-30T19:21:36.303Z,102062.69
2019-05-30T19:24:06.026Z,102059.67
2019-05-30T19:26:36.717Z,102062.91
2019-05-30T19:29:06.540Z,102065.26
2019-05-30T19:31:37.006Z,102058.83
2019-05-30T19:34:06.763Z,102054.14
2019-05-30T19:36:37.315Z,102053.46
2019-05-30T19:39:07.602Z,102048.55
2019-05-30T19:41:52.625Z,102046.05
2019-05-30T19:44:08.558Z,102046.60
2019-05-30T19:46:38.431Z,102051.67
2019-05-30T19:49:08.062Z,102044.64
2019-05-30T19:51:39.114Z,102044.64
2019-05-30T19:54:09.028Z,102036.49
2019-05-30T19:56:41.658Z,102033.16
2019-05-30T19:59:10.198Z,102031.67
2019-05-30T20:01:40.820Z,102031.23
2019-05-30T20:04:10.539Z,102034.82
2019-05-30T20:06:40.877Z,102026.88
2019-05-30T20:09:10.773Z,102031.30
2019-05-30T20:11:41.542Z,102022.53
2019-05-30T20:14:11.321Z,102020.80
2019-05-30T20:16:42.029Z,102025.42
2019-05-30T20:19:12.225Z,102020.17
2019-05-30T20:21:43.064Z,102014.66
2019-05-30T20:24:12.759Z,102013.85
2019-05-30T20:26:42.779Z,102020.11
2019-05-30T20:29:13.025Z,102014.03
2019-05-30T20:31:43.650Z,102013.34
2019-05-30T20:34:13.885Z,102017.77
2019-05-30T20:36:43.531Z,102011.03
2019-05-30T20:39:13.233Z,102009.69
2019-05-30T20:41:43.211Z,102010.73
2019-05-30T20:44:12.965Z,102009.27
2019-05-30T20:46:43.257Z,102013.06
2019-05-30T20:49:12.926Z,102007.61
2019-05-30T20:51:43.436Z,102005.97
2019-05-30T20:54:13.196Z,102000.45
2019-05-30T20:56:44.110Z,101997.88
2019-05-30T20:59:14.154Z,101994.92
2019-05-30T21:01:43.918Z,101995.48
2019-05-30T21:04:16.029Z,101995.66
2019-05-30T21:06:47.150Z,101994.89
2019-05-30T21:09:28.414Z,101994.05
2019-05-30T21:11:54.392Z,101994.16
2019-05-30T21:14:27.415Z,101991.13
2019-05-30T21:16:57.239Z,101993.33
2019-05-30T21:19:26.866Z,101989.09
2019-05-30T21:21:56.532Z,101993.04
2019-05-30T21:24:26.754Z,101989.64
2019-05-30T21:26:56.404Z,101994.84
2019-05-30T21:29:26.090Z,101983.83
2019-05-30T21:31:55.825Z,101984.73
2019-05-30T21:34:25.640Z,101992.00
2019-05-30T21:36:55.445Z,101993.35
2019-05-30T21:39:25.025Z,101993.91
2019-05-30T21:41:54.662Z,101992.23
2019-05-30T21:44:24.328Z,101998.45
2019-05-30T21:46:53.954Z,101991.36
2019-05-30T21:49:23.748Z,101984.20
2019-05-30T21:51:53.902Z,101987.77
2019-05-30T21:54:23.516Z,101985.72
2019-05-30T21:56:53.131Z,101990.51
2019-05-30T21:59:34.535Z,101983.70
2019-05-30T22:02:04.367Z,101986.83
2019-05-30T22:04:33.995Z,101977.90
2019-05-30T22:07:03.679Z,101980.47
2019-05-30T22:09:33.313Z,101980.08
2019-05-30T22:12:02.942Z,101984.88
2019-05-30T22:14:32.605Z,101978.97
2019-05-30T22:17:02.238Z,101976.50
2019-05-30T22:19:31.846Z,101973.61
2019-05-30T22:22:01.505Z,101973.72
2019-05-30T22:24:31.141Z,101977.64
2019-05-30T22:27:01.740Z,101971.38
2019-05-30T22:29:31.431Z,101973.66
2019-05-30T22:32:01.328Z,101970.33
2019-05-30T22:34:30.958Z,101966.13
2019-05-30T22:37:00.781Z,101966.30
2019-05-30T22:39:30.402Z,101958.20
2019-05-30T22:42:01.556Z,101971.11
2019-05-30T22:44:31.611Z,101968.16
2019-05-30T22:47:01.256Z,101970.21
2019-05-30T22:49:30.856Z,101970.73
2019-05-30T22:52:02.318Z,101961.87
2019-05-30T22:54:32.085Z,101962.64
2019-05-30T22:57:01.872Z,101959.17
2019-05-30T22:59:31.561Z,101963.02
2019-05-30T23:02:01.189Z,101963.83
2019-05-30T23:04:30.809Z,101963.47
2019-05-30T23:07:00.462Z,101970.73
2019-05-30T23:09:30.080Z,101962.54
2019-05-30T23:12:01.354Z,101957.81
2019-05-30T23:14:31.074Z,101955.92
2019-05-30T23:17:00.732Z,101959.25
2019-05-30T23:19:30.356Z,101957.42
2019-05-30T23:22:01.657Z,101947.43
2019-05-30T23:24:31.300Z,101950.83
2019-05-30T23:27:01.290Z,101946.53
2019-05-30T23:29:30.969Z,101952.11
2019-05-30T23:32:00.610Z,101949.03
2019-05-30T23:34:30.232Z,101952.88
2019-05-30T23:36:59.859Z,101949.83
2019-05-30T23:39:29.477Z,101954.00
2019-05-30T23:41:59.409Z,101958.66
2019-05-30T23:44:29.140Z,101968.86
2019-05-30T23:46:59.757Z,101960.31
2019-05-30T23:49:29.451Z,101966.05
2019-05-30T23:52:00.329Z,101963.31
2019-05-30T23:54:30.543Z,101962.14
2019-05-30T23:57:00.821Z,101960.17
2019-05-30T23:59:30.731Z,101960.06
